Time;durP1;ratioP1;P1;durP2;ratioP2;P2;SDS_P1;SDS_P2;PMS_P1;PMS_P2;Temp;Humidity;BMP_temperature;BMP_pressure;BME280_temperature;BME280_humidity;BME280_pressure;Samples;Min_cycle;Max_cycle;Signal;HPM_P1;HPM_P2
2021/05/24 00:00:02;;;;;;;2.30;0.60;;;10.40;75.10;;;;;;4995133;28;20398;-78
2021/05/24 00:02:27;;;;;;;4.07;1.00;;;10.30;75.00;;;;;;4965468;28;20120;-79
2021/05/24 00:04:53;;;;;;;3.58;0.65;;;10.20;75.20;;;;;;4968368;28;20066;-79
2021/05/24 00:07:18;;;;;;;2.88;0.85;;;10.30;75.70;;;;;;4977792;28;20449;-78
2021/05/24 00:09:44;;;;;;;1.65;0.60;;;10.20;75.80;;;;;;4996272;28;20532;-78
2021/05/24 00:12:10;;;;;;;4.88;0.70;;;10.20;76.20;;;;;;4977361;28;20390;-78
2021/05/24 00:14:38;;;;;;;4.03;0.93;;;10.20;75.90;;;;;;4962285;28;20034;-78
2021/05/24 00:17:04;;;;;;;1.88;0.70;;;10.20;76.30;;;;;;4978830;28;20038;-79
2021/05/24 00:19:30;;;;;;;3.70;0.40;;;10.30;76.10;;;;;;4967942;28;20049;-78
2021/05/24 00:21:55;;;;;;;0.98;0.57;;;10.20;77.00;;;;;;4981455;28;20034;-79
2021/05/24 00:24:21;;;;;;;1.67;0.68;;;10.20;76.40;;;;;;4979999;28;20030;-77
2021/05/24 00:26:46;;;;;;;1.17;0.70;;;10.30;76.80;;;;;;4965662;28;20034;-78
2021/05/24 00:29:18;;;;;;;1.75;0.80;;;10.30;76.70;;;;;;4991958;28;20026;-77
2021/05/24 00:31:44;;;;;;;0.45;0.40;;;10.30;77.00;;;;;;4968754;28;20057;-78
2021/05/24 00:34:09;;;;;;;0.93;0.50;;;10.40;77.00;;;;;;4960852;28;20038;-78
2021/05/24 00:36:35;;;;;;;3.15;0.52;;;10.50;76.90;;;;;;4979445;28;20080;-78
2021/05/24 00:39:00;;;;;;;1.42;0.60;;;10.50;77.40;;;;;;4986980;28;20034;-77
2021/05/24 00:41:26;;;;;;;3.72;0.80;;;10.50;77.40;;;;;;4979949;28;20117;-77
2021/05/24 00:43:52;;;;;;;1.98;0.55;;;10.40;77.30;;;;;;5000193;28;20037;-77
2021/05/24 00:46:18;;;;;;;1.20;0.63;;;10.40;77.50;;;;;;4979049;28;20526;-77
2021/05/24 00:48:44;;;;;;;1.65;0.50;;;10.40;77.70;;;;;;4971296;28;20069;-77
2021/05/24 00:51:09;;;;;;;1.85;0.50;;;10.50;77.90;;;;;;4977556;28;20041;-77
2021/05/24 00:53:35;;;;;;;1.65;0.50;;;10.60;78.00;;;;;;4982143;28;20038;-77
2021/05/24 00:56:00;;;;;;;2.42;0.82;;;10.60;78.30;;;;;;4981103;28;20031;-77
2021/05/24 00:58:26;;;;;;;1.38;0.50;;;10.60;78.20;;;;;;4987614;28;20045;-77
2021/05/24 01:00:52;;;;;;;0.80;0.50;;;10.50;78.80;;;;;;4996732;28;20030;-77
2021/05/24 01:03:17;;;;;;;1.95;0.73;;;10.50;78.90;;;;;;4973402;28;20565;-77
2021/05/24 01:05:44;;;;;;;1.08;0.65;;;10.60;78.90;;;;;;4997338;28;20044;-77
2021/05/24 01:08:10;;;;;;;1.00;0.40;;;10.60;78.80;;;;;;4981586;28;20041;-77
2021/05/24 01:10:36;;;;;;;2.53;0.40;;;10.60;79.20;;;;;;4980355;28;20034;-78
2021/05/24 01:13:04;;;;;;;2.95;0.60;;;10.60;79.50;;;;;;4977463;28;20393;-77
2021/05/24 01:15:29;;;;;;;1.80;0.60;;;10.60;79.50;;;;;;4993295;28;20116;-78
2021/05/24 01:17:55;;;;;;;2.17;0.35;;;10.60;79.60;;;;;;4968678;28;20077;-77
2021/05/24 01:20:22;;;;;;;1.40;0.60;;;10.70;79.70;;;;;;4968069;28;20069;-78
2021/05/24 01:22:57;;;;;;;1.27;0.60;;;10.80;79.80;;;;;;4982827;28;20030;-77
2021/05/24 01:25:24;;;;;;;1.50;0.70;;;10.80;79.80;;;;;;4983855;28;20080;-77
2021/05/24 01:27:49;;;;;;;0.95;0.55;;;10.90;79.90;;;;;;4969706;28;20445;-77
2021/05/24 01:30:15;;;;;;;0.40;0.40;;;10.90;79.80;;;;;;4969155;28;20034;-77
2021/05/24 01:32:41;;;;;;;1.40;0.43;;;11.00;79.80;;;;;;4984845;28;20172;-77
2021/05/24 01:35:07;;;;;;;3.33;0.50;;;11.00;80.10;;;;;;4996996;28;20413;-78
2021/05/24 01:37:32;;;;;;;0.65;0.38;;;11.00;80.20;;;;;;4994817;28;20045;-78
2021/05/24 01:40:01;;;;;;;0.95;0.68;;;11.10;80.00;;;;;;4994317;28;20038;-77
2021/05/24 01:42:26;;;;;;;2.08;0.77;;;11.10;79.90;;;;;;4964393;28;20034;-77
2021/05/24 01:44:52;;;;;;;1.88;0.90;;;11.10;79.90;;;;;;4971234;28;20034;-77
2021/05/24 01:47:17;;;;;;;2.63;0.80;;;11.10;80.80;;;;;;4983573;28;20038;-77
2021/05/24 01:49:47;;;;;;;1.05;0.50;;;11.10;80.50;;;;;;4975070;28;20188;-77
2021/05/24 01:52:13;;;;;;;1.83;0.50;;;11.10;80.20;;;;;;4983203;28;20030;-77
2021/05/24 01:54:38;;;;;;;0.90;0.40;;;11.10;80.50;;;;;;4983277;28;20394;-77
2021/05/24 01:57:04;;;;;;;1.27;0.73;;;11.20;80.50;;;;;;4997695;28;20027;-77
2021/05/24 01:59:30;;;;;;;3.17;0.70;;;11.10;80.60;;;;;;4987723;28;20034;-77
2021/05/24 02:01:55;;;;;;;2.20;0.57;;;11.10;80.80;;;;;;4996711;28;20031;-78
2021/05/24 02:04:21;;;;;;;0.98;0.50;;;11.10;81.30;;;;;;4999653;28;20030;-77
2021/05/24 02:06:46;;;;;;;2.03;0.60;;;11.00;81.10;;;;;;4982791;28;20751;-77
2021/05/24 02:09:12;;;;;;;0.68;0.40;;;11.00;81.10;;;;;;4996485;28;20034;-77
2021/05/24 02:11:37;;;;;;;3.60;0.65;;;11.10;81.10;;;;;;4994448;28;20027;-77
2021/05/24 02:14:03;;;;;;;1.15;0.65;;;11.10;81.10;;;;;;4975856;28;20038;-77
2021/05/24 02:16:46;;;;;;;3.70;0.60;;;11.10;81.40;;;;;;4980965;28;20041;-77
2021/05/24 02:19:12;;;;;;;0.57;0.40;;;11.00;81.40;;;;;;4984609;28;20068;-77
2021/05/24 02:21:38;;;;;;;1.50;0.57;;;11.00;81.80;;;;;;4971005;28;20038;-78
2021/05/24 02:24:05;;;;;;;2.03;0.45;;;11.00;81.60;;;;;;4984597;28;20030;-78
2021/05/24 02:26:30;;;;;;;0.90;0.50;;;11.00;81.80;;;;;;4998965;28;20038;-78
2021/05/24 02:28:56;;;;;;;1.52;0.47;;;11.10;81.60;;;;;;4973544;28;20040;-78
2021/05/24 02:31:21;;;;;;;2.40;0.68;;;11.10;81.50;;;;;;4971855;28;20438;-78
2021/05/24 02:33:47;;;;;;;0.40;0.40;;;11.00;81.50;;;;;;4980845;28;20062;-78
2021/05/24 02:36:13;;;;;;;0.93;0.60;;;11.10;81.60;;;;;;5007302;28;20034;-78
2021/05/24 02:38:39;;;;;;;2.63;0.70;;;11.10;81.50;;;;;;4985968;28;20820;-78
2021/05/24 02:41:04;;;;;;;1.08;0.50;;;11.10;81.50;;;;;;4987801;28;20031;-78
2021/05/24 02:43:30;;;;;;;1.63;0.43;;;11.00;81.60;;;;;;5003825;28;20025;-78
2021/05/24 02:45:56;;;;;;;2.33;0.60;;;10.90;81.70;;;;;;4987065;28;20038;-78
2021/05/24 02:48:22;;;;;;;1.88;0.52;;;11.00;81.90;;;;;;4999403;28;20026;-78
2021/05/24 02:50:48;;;;;;;8.68;0.77;;;11.10;81.80;;;;;;4984673;28;20026;-77
2021/05/24 02:53:13;;;;;;;1.85;0.63;;;11.10;81.70;;;;;;4996111;28;20038;-78
2021/05/24 02:55:39;;;;;;;2.25;0.82;;;11.20;81.60;;;;;;4997892;28;20029;-77
2021/05/24 02:58:05;;;;;;;2.45;0.50;;;11.20;81.40;;;;;;4988499;28;20145;-77
2021/05/24 03:00:31;;;;;;;2.28;0.60;;;11.20;81.50;;;;;;4984792;28;20036;-77
2021/05/24 03:02:57;;;;;;;0.88;0.40;;;11.30;81.50;;;;;;4984131;28;20038;-77
2021/05/24 03:05:23;;;;;;;1.67;0.70;;;11.20;81.80;;;;;;4997983;28;20050;-77
2021/05/24 03:07:50;;;;;;;1.25;0.47;;;11.20;81.70;;;;;;4972398;28;20073;-78
2021/05/24 03:10:17;;;;;;;3.00;0.60;;;11.20;81.70;;;;;;4964935;28;20040;-77
2021/05/24 03:12:42;;;;;;;3.03;0.50;;;11.30;81.80;;;;;;4997151;28;20058;-77
2021/05/24 03:15:08;;;;;;;1.77;0.47;;;11.30;81.70;;;;;;4992189;28;20030;-77
2021/05/24 03:17:38;;;;;;;1.25;0.45;;;11.30;81.70;;;;;;4984074;28;20061;-77
2021/05/24 03:20:04;;;;;;;2.47;0.90;;;11.20;82.00;;;;;;4983402;28;20035;-77
2021/05/24 03:22:30;;;;;;;1.67;0.50;;;11.30;81.80;;;;;;4994329;28;20445;-77
2021/05/24 03:24:55;;;;;;;1.70;0.43;;;11.30;81.60;;;;;;4998008;28;20030;-77
2021/05/24 03:27:21;;;;;;;1.70;0.52;;;11.20;81.80;;;;;;4979390;28;20160;-77
2021/05/24 03:29:47;;;;;;;2.13;0.50;;;11.40;82.00;;;;;;4980338;28;20109;-77
2021/05/24 03:32:12;;;;;;;2.25;0.60;;;11.30;81.90;;;;;;4970175;28;20022;-77
2021/05/24 03:34:38;;;;;;;2.78;0.52;;;11.30;82.00;;;;;;4997450;28;20069;-77
2021/05/24 03:37:04;;;;;;;2.33;0.30;;;11.30;81.80;;;;;;4961922;28;20839;-77
2021/05/24 03:39:29;;;;;;;1.92;0.50;;;11.40;81.90;;;;;;4951760;28;20041;-77
2021/05/24 03:41:55;;;;;;;2.92;0.47;;;11.30;81.70;;;;;;4956655;28;20038;-77
2021/05/24 03:44:20;;;;;;;2.47;0.30;;;11.30;82.20;;;;;;4981308;28;20026;-77
2021/05/24 03:46:47;;;;;;;1.88;0.55;;;11.30;82.10;;;;;;4968924;28;20025;-77
2021/05/24 03:49:12;;;;;;;2.35;0.50;;;11.30;82.00;;;;;;4969286;28;20035;-77
2021/05/24 03:51:38;;;;;;;2.70;0.30;;;11.40;81.90;;;;;;4962757;28;20095;-77
2021/05/24 03:54:04;;;;;;;1.67;0.60;;;11.40;82.00;;;;;;4978992;28;20109;-78
2021/05/24 03:56:30;;;;;;;1.13;0.50;;;11.40;81.70;;;;;;4993401;28;20502;-77
2021/05/24 03:58:55;;;;;;;1.50;0.57;;;11.40;81.90;;;;;;4986104;28;20067;-77
2021/05/24 04:01:21;;;;;;;3.03;0.70;;;11.50;81.90;;;;;;4968804;28;20030;-77
2021/05/24 04:03:47;;;;;;;1.88;0.75;;;11.50;81.60;;;;;;4986768;28;20117;-78
2021/05/24 04:06:15;;;;;;;2.65;0.50;;;11.60;81.40;;;;;;5002456;28;20026;-77
2021/05/24 04:08:44;;;;;;;1.98;0.60;;;11.70;81.30;;;;;;5001108;28;20100;-77
2021/05/24 04:11:11;;;;;;;0.70;0.60;;;11.70;81.30;;;;;;4966153;28;20486;-77
2021/05/24 04:13:36;;;;;;;3.80;0.75;;;11.80;80.90;;;;;;4978596;28;20482;-77
2021/05/24 04:16:02;;;;;;;2.33;0.60;;;11.80;81.00;;;;;;4981490;28;20026;-78
2021/05/24 04:18:32;;;;;;;3.72;0.50;;;11.90;80.70;;;;;;4971664;28;20038;-77
2021/05/24 04:20:58;;;;;;;2.10;0.40;;;11.90;80.70;;;;;;4994946;28;20524;-78
2021/05/24 04:23:24;;;;;;;3.78;0.55;;;11.90;80.80;;;;;;4995057;28;20026;-78
2021/05/24 04:25:49;;;;;;;1.75;0.60;;;11.90;80.60;;;;;;4989022;28;20462;-78
2021/05/24 04:28:15;;;;;;;1.75;0.40;;;12.00;80.50;;;;;;4984813;28;20114;-78
2021/05/24 04:30:41;;;;;;;2.20;0.47;;;12.00;80.50;;;;;;4993366;28;20038;-77
2021/05/24 04:33:08;;;;;;;2.28;0.50;;;12.00;80.40;;;;;;4964759;28;20033;-77
2021/05/24 04:35:35;;;;;;;3.22;0.75;;;12.00;80.70;;;;;;4968690;28;20160;-78
2021/05/24 04:38:00;;;;;;;2.00;0.93;;;12.00;80.50;;;;;;4975299;28;20058;-78
2021/05/24 04:40:26;;;;;;;2.78;0.70;;;12.00;80.60;;;;;;4997413;28;20073;-78
2021/05/24 04:42:51;;;;;;;1.98;0.73;;;12.10;80.50;;;;;;4971053;28;20045;-78
2021/05/24 04:45:17;;;;;;;2.38;0.70;;;12.10;80.10;;;;;;4992253;28;20035;-78
2021/05/24 04:47:43;;;;;;;2.25;0.50;;;12.10;79.90;;;;;;4997371;28;20138;-78
2021/05/24 04:50:09;;;;;;;2.33;0.70;;;12.20;79.90;;;;;;4987560;28;20445;-78
2021/05/24 04:52:35;;;;;;;1.33;0.52;;;12.30;80.10;;;;;;4981975;28;20117;-78
2021/05/24 04:55:00;;;;;;;3.88;0.50;;;12.30;79.70;;;;;;4976031;28;20109;-78
2021/05/24 04:57:26;;;;;;;1.77;0.65;;;12.30;79.40;;;;;;4979802;28;20034;-77
2021/05/24 04:59:52;;;;;;;1.05;0.40;;;12.40;79.40;;;;;;4980504;28;20034;-77
2021/05/24 05:02:17;;;;;;;1.05;0.50;;;12.60;79.30;;;;;;4977667;28;20121;-78
2021/05/24 05:04:43;;;;;;;2.03;0.80;;;12.70;78.70;;;;;;4961127;28;20037;-78
2021/05/24 05:07:08;;;;;;;3.95;1.45;;;12.80;78.30;;;;;;4981292;28;20556;-77
2021/05/24 05:09:34;;;;;;;1.73;0.40;;;13.00;78.20;;;;;;4993354;28;20049;-78
2021/05/24 05:12:00;;;;;;;0.60;0.35;;;13.30;78.10;;;;;;4980580;28;20034;-77
2021/05/24 05:14:26;;;;;;;1.80;0.60;;;13.50;77.50;;;;;;4974476;28;20089;-78
2021/05/24 05:16:52;;;;;;;1.60;0.60;;;13.50;76.60;;;;;;4982561;28;20854;-77
2021/05/24 05:19:18;;;;;;;1.90;1.23;;;13.40;76.50;;;;;;4978756;28;20089;-77
2021/05/24 05:21:46;;;;;;;4.75;0.65;;;13.50;76.70;;;;;;4989451;28;20046;-78
2021/05/24 05:24:19;;;;;;;0.68;0.38;;;13.50;76.30;;;;;;4964004;28;20030;-77
2021/05/24 05:26:47;;;;;;;1.08;0.45;;;13.60;76.70;;;;;;4980837;28;20030;-77
2021/05/24 05:29:12;;;;;;;3.97;0.70;;;13.60;76.30;;;;;;4970958;28;20132;-77
2021/05/24 05:31:38;;;;;;;1.17;0.40;;;13.60;76.40;;;;;;4982508;28;20114;-78
2021/05/24 05:34:04;;;;;;;1.08;0.50;;;13.50;76.00;;;;;;4986346;28;20088;-77
2021/05/24 05:36:30;;;;;;;0.75;0.30;;;13.60;75.90;;;;;;4981394;28;20409;-77
2021/05/24 05:38:55;;;;;;;3.40;0.57;;;13.60;75.90;;;;;;5001790;28;20065;-77
2021/05/24 05:41:21;;;;;;;2.63;0.63;;;13.70;75.60;;;;;;4978993;28;20026;-77
2021/05/24 05:43:46;;;;;;;3.33;0.57;;;13.80;75.60;;;;;;4984931;28;20481;-78
2021/05/24 05:46:12;;;;;;;3.40;0.50;;;14.00;75.10;;;;;;4983347;28;20132;-78
2021/05/24 05:48:37;;;;;;;0.77;0.50;;;14.10;74.50;;;;;;4977285;28;20496;-78
2021/05/24 05:51:04;;;;;;;3.17;0.70;;;14.30;74.40;;;;;;4988809;28;20105;-78
2021/05/24 05:53:29;;;;;;;2.25;0.30;;;14.50;73.90;;;;;;5003341;28;20054;-78
2021/05/24 05:55:55;;;;;;;3.53;0.60;;;14.40;73.30;;;;;;4968971;28;20046;-77
2021/05/24 05:58:21;;;;;;;2.08;0.43;;;14.50;73.10;;;;;;4987432;28;20022;-77
2021/05/24 06:00:46;;;;;;;1.85;0.68;;;14.60;72.60;;;;;;4999165;28;20673;-77
2021/05/24 06:03:13;;;;;;;2.80;0.47;;;14.70;72.20;;;;;;4983286;28;20037;-77
2021/05/24 06:05:38;;;;;;;1.25;0.50;;;14.90;72.00;;;;;;4973532;28;20118;-77
2021/05/24 06:08:04;;;;;;;0.32;0.32;;;15.00;71.20;;;;;;4983967;28;20113;-77
2021/05/24 06:10:31;;;;;;;4.18;0.50;;;15.10;71.10;;;;;;4981383;28;20030;-77
2021/05/24 06:12:57;;;;;;;2.03;0.60;;;15.20;70.40;;;;;;4980566;28;20022;-78
2021/05/24 06:15:23;;;;;;;2.75;0.50;;;15.50;70.10;;;;;;4994070;28;20031;-77
2021/05/24 06:17:48;;;;;;;0.82;0.40;;;15.70;69.50;;;;;;4997575;28;20145;-77
2021/05/24 06:20:14;;;;;;;3.50;0.50;;;15.80;68.30;;;;;;4992003;28;20030;-78
2021/05/24 06:22:39;;;;;;;1.55;0.40;;;15.70;68.60;;;;;;4996067;28;20030;-77
2021/05/24 06:25:07;;;;;;;2.30;0.40;;;16.00;68.30;;;;;;4991392;28;20047;-77
2021/05/24 06:27:32;;;;;;;1.50;0.40;;;16.10;67.70;;;;;;4989014;28;20129;-77
2021/05/24 06:29:58;;;;;;;2.10;0.55;;;15.90;67.80;;;;;;4980470;28;20121;-77
2021/05/24 06:32:23;;;;;;;3.40;1.08;;;16.20;67.60;;;;;;4994445;28;20680;-78
2021/05/24 06:34:49;;;;;;;3.80;0.40;;;16.20;66.70;;;;;;4983730;28;20169;-77
2021/05/24 06:37:15;;;;;;;1.20;0.35;;;16.40;66.70;;;;;;4978330;28;20088;-77
2021/05/24 06:39:40;;;;;;;1.58;0.30;;;16.80;65.80;;;;;;4985568;28;20413;-77
2021/05/24 06:42:06;;;;;;;1.35;0.50;;;16.70;65.60;;;;;;4976847;28;22100;-78
2021/05/24 06:44:32;;;;;;;3.65;0.80;;;16.70;66.00;;;;;;4977871;28;20057;-78
2021/05/24 06:46:57;;;;;;;1.88;0.77;;;17.10;65.40;;;;;;4986467;28;20031;-78
2021/05/24 06:49:23;;;;;;;3.20;0.60;;;17.20;64.80;;;;;;4998738;28;20034;-78
2021/05/24 06:51:50;;;;;;;2.70;0.38;;;17.20;64.10;;;;;;4987306;28;20060;-78
2021/05/24 06:54:15;;;;;;;1.33;0.40;;;17.20;64.50;;;;;;4994805;28;20033;-78
2021/05/24 06:56:41;;;;;;;1.20;0.57;;;17.50;64.00;;;;;;4981571;28;20145;-79
2021/05/24 06:59:06;;;;;;;1.27;0.43;;;17.60;63.50;;;;;;4981297;28;20030;-79
2021/05/24 07:01:32;;;;;;;1.23;0.40;;;17.90;63.40;;;;;;4995957;28;20057;-79
2021/05/24 07:03:59;;;;;;;1.95;0.45;;;18.00;63.60;;;;;;4976988;28;20489;-79
2021/05/24 07:06:24;;;;;;;2.15;0.30;;;18.10;62.90;;;;;;4981899;28;20034;-79
2021/05/24 07:08:50;;;;;;;1.77;0.40;;;18.30;63.20;;;;;;4984514;28;20037;-79
2021/05/24 07:11:15;;;;;;;5.88;0.85;;;18.30;61.90;;;;;;4983739;28;20034;-79
2021/05/24 07:13:41;;;;;;;1.75;0.55;;;18.60;62.20;;;;;;4985005;28;20065;-79
2021/05/24 07:16:06;;;;;;;3.00;0.70;;;18.90;61.80;;;;;;4971039;28;20461;-79
2021/05/24 07:18:32;;;;;;;3.33;0.50;;;18.90;60.50;;;;;;4965840;28;20505;-80
2021/05/24 07:20:58;;;;;;;2.17;0.60;;;18.60;61.00;;;;;;4975158;28;20108;-79
2021/05/24 07:23:23;;;;;;;4.78;0.40;;;18.90;61.40;;;;;;4976954;28;20045;-79
2021/05/24 07:25:49;;;;;;;5.57;0.40;;;19.10;61.10;;;;;;4992100;28;20076;-79
2021/05/24 07:28:14;;;;;;;1.75;0.50;;;19.60;59.90;;;;;;4978601;28;20370;-79
2021/05/24 07:30:40;;;;;;;1.67;0.55;;;19.40;59.20;;;;;;4996290;28;20036;-79
2021/05/24 07:33:05;;;;;;;1.83;0.60;;;19.50;59.10;;;;;;4977227;28;20077;-79
2021/05/24 07:35:31;;;;;;;4.38;0.73;;;19.70;61.10;;;;;;4981832;28;20045;-78
2021/05/24 07:37:56;;;;;;;2.00;0.77;;;20.00;58.70;;;;;;4993545;28;20034;-78
2021/05/24 07:40:22;;;;;;;3.30;0.80;;;20.40;60.40;;;;;;4977651;28;20146;-78
2021/05/24 07:42:51;;;;;;;2.65;1.00;;;20.50;58.10;;;;;;4997626;28;20136;-77
2021/05/24 07:45:16;;;;;;;3.97;0.60;;;20.10;57.90;;;;;;4987055;28;20041;-77
2021/05/24 07:47:51;;;;;;;1.10;0.43;;;20.90;59.20;;;;;;4960422;28;20034;-78
2021/05/24 07:50:18;;;;;;;2.08;0.65;;;21.00;57.30;;;;;;4948444;28;20030;-77
2021/05/24 07:52:43;;;;;;;1.23;0.60;;;20.90;56.70;;;;;;4995037;28;20052;-77
2021/05/24 07:55:09;;;;;;;2.35;0.60;;;21.00;56.00;;;;;;4975962;28;20472;-77
2021/05/24 07:57:36;;;;;;;2.45;0.70;;;21.20;58.10;;;;;;4952402;28;20042;-77
2021/05/24 08:00:04;;;;;;;1.77;0.60;;;21.10;56.20;;;;;;4965299;28;20078;-78
2021/05/24 08:02:29;;;;;;;1.63;0.60;;;21.40;56.40;;;;;;4993881;28;20034;-77
2021/05/24 08:04:56;;;;;;;4.53;0.40;;;21.30;56.40;;;;;;4965195;28;20026;-77
2021/05/24 08:07:22;;;;;;;1.70;0.52;;;21.50;55.50;;;;;;4980167;28;20665;-76
2021/05/24 08:09:48;;;;;;;2.28;0.70;;;20.90;56.50;;;;;;4994218;28;20033;-77
2021/05/24 08:12:13;;;;;;;5.53;1.30;;;21.30;56.00;;;;;;4972385;28;20037;-77
2021/05/24 08:14:39;;;;;;;2.08;0.75;;;21.10;56.40;;;;;;4979826;28;20026;-77
2021/05/24 08:17:04;;;;;;;2.15;0.75;;;21.70;56.40;;;;;;4990854;28;20062;-78
2021/05/24 08:19:30;;;;;;;2.13;0.40;;;22.10;55.30;;;;;;4981927;28;20045;-77
2021/05/24 08:21:55;;;;;;;0.80;0.40;;;22.20;54.40;;;;;;4982382;28;20034;-77
2021/05/24 08:24:21;;;;;;;2.92;0.82;;;21.90;53.60;;;;;;4964467;28;20037;-77
2021/05/24 08:26:46;;;;;;;5.07;1.40;;;21.60;53.50;;;;;;4978376;28;20026;-77
2021/05/24 08:29:12;;;;;;;6.20;0.60;;;21.70;54.00;;;;;;4964892;28;20037;-77
2021/05/24 08:31:38;;;;;;;3.13;0.50;;;21.60;54.30;;;;;;4991120;28;20062;-76
2021/05/24 08:34:03;;;;;;;2.05;0.40;;;21.40;53.30;;;;;;4994887;28;20026;-77
2021/05/24 08:36:29;;;;;;;1.17;0.60;;;21.20;54.20;;;;;;4963771;28;20389;-77
2021/05/24 08:38:54;;;;;;;3.05;0.73;;;21.30;54.10;;;;;;4963557;28;20034;-77
2021/05/24 08:41:20;;;;;;;1.88;0.60;;;21.10;54.80;;;;;;4994245;28;20142;-76
2021/05/24 08:43:46;;;;;;;2.85;0.47;;;20.90;54.90;;;;;;4977031;28;20076;-77
2021/05/24 08:46:12;;;;;;;1.30;0.50;;;20.60;54.90;;;;;;4991650;28;20034;-77
2021/05/24 08:48:37;;;;;;;1.58;0.32;;;20.30;55.80;;;;;;4988075;28;20398;-76
2021/05/24 08:51:05;;;;;;;1.80;0.40;;;20.00;55.40;;;;;;4963069;28;20034;-77
2021/05/24 08:53:31;;;;;;;2.92;1.08;;;19.50;55.80;;;;;;4989768;28;20096;-77
2021/05/24 08:55:57;;;;;;;2.05;0.57;;;19.40;56.50;;;;;;4963482;28;20515;-78
2021/05/24 08:58:23;;;;;;;3.88;0.85;;;19.50;56.40;;;;;;4965494;28;20042;-76
2021/05/24 09:00:49;;;;;;;2.58;0.77;;;19.50;56.20;;;;;;4978997;28;20057;-76
2021/05/24 09:03:24;;;;;;;2.25;0.90;;;19.40;56.30;;;;;;4981095;28;20075;-76
2021/05/24 09:05:50;;;;;;;0.70;0.47;;;19.20;56.30;;;;;;4967114;28;20026;-77
2021/05/24 09:08:16;;;;;;;3.08;1.00;;;19.20;56.10;;;;;;4964782;28;20458;-76
2021/05/24 09:10:43;;;;;;;3.20;0.80;;;19.00;56.90;;;;;;4965252;28;20038;-76
2021/05/24 09:13:10;;;;;;;1.70;0.55;;;19.20;56.70;;;;;;4996160;28;20062;-76
2021/05/24 09:15:37;;;;;;;4.18;0.85;;;18.90;57.00;;;;;;4969844;28;20081;-77
2021/05/24 09:18:03;;;;;;;2.33;0.75;;;18.80;57.60;;;;;;4968644;28;20504;-77
2021/05/24 09:20:37;;;;;;;1.30;0.60;;;18.80;57.50;;;;;;4980493;28;20061;-77
2021/05/24 09:23:21;;;;;;;1.27;0.60;;;19.00;57.50;;;;;;4982263;28;20030;-76
2021/05/24 09:25:58;;;;;;;3.63;0.77;;;18.90;58.20;;;;;;4998030;28;20152;-78
2021/05/24 09:28:26;;;;;;;4.07;0.60;;;18.60;58.00;;;;;;4986992;28;20584;-77
2021/05/24 09:31:12;;;;;;;3.85;0.77;;;18.80;57.80;;;;;;5000657;28;20090;-76
2021/05/24 09:33:40;;;;;;;2.45;0.70;;;19.10;57.60;;;;;;4983280;28;20049;-76
2021/05/24 09:36:06;;;;;;;2.65;1.02;;;19.30;58.30;;;;;;4966082;28;20493;-76
2021/05/24 09:38:35;;;;;;;3.88;0.90;;;19.00;57.60;;;;;;4970527;28;20032;-77
2021/05/24 09:41:02;;;;;;;2.03;0.68;;;19.10;57.90;;;;;;4995443;28;20022;-76
2021/05/24 09:43:29;;;;;;;1.95;0.63;;;19.10;57.90;;;;;;4981291;28;20027;-77
2021/05/24 09:46:07;;;;;;;2.58;0.57;;;19.10;58.10;;;;;;4980080;28;20035;-76
2021/05/24 09:48:33;;;;;;;3.03;0.63;;;19.10;58.70;;;;;;4998565;28;20113;-77
2021/05/24 09:51:00;;;;;;;3.60;0.75;;;19.10;58.40;;;;;;4997678;28;20113;-76
2021/05/24 09:53:26;;;;;;;1.52;0.63;;;19.30;58.00;;;;;;4967928;28;20022;-76
2021/05/24 09:55:51;;;;;;;3.30;0.70;;;19.50;58.00;;;;;;4994091;28;20026;-78
2021/05/24 09:58:17;;;;;;;1.58;0.50;;;19.60;58.20;;;;;;4975350;28;20023;-77
2021/05/24 10:03:10;;;;;;;3.75;0.80;;;19.90;57.70;;;;;;4996346;28;20030;-77
2021/05/24 10:05:40;;;;;;;5.40;0.77;;;20.10;57.90;;;;;;4982244;28;20031;-76
2021/05/24 10:08:06;;;;;;;1.25;0.50;;;20.40;57.50;;;;;;4982972;28;20038;-76
2021/05/24 10:10:32;;;;;;;2.15;0.52;;;20.40;56.80;;;;;;4992118;28;20549;-76
2021/05/24 10:12:58;;;;;;;0.82;0.50;;;20.50;56.90;;;;;;4979907;28;20081;-76
2021/05/24 10:15:24;;;;;;;1.52;0.50;;;20.30;57.60;;;;;;4978594;28;20118;-76
2021/05/24 10:17:57;;;;;;;1.20;0.43;;;20.10;60.00;;;;;;4971323;28;20117;-77
2021/05/24 10:20:22;;;;;;;0.52;0.35;;;19.80;60.40;;;;;;4963819;28;20061;-76
2021/05/24 10:22:48;;;;;;;1.95;0.60;;;19.40;62.90;;;;;;4979486;28;20026;-77
2021/05/24 10:25:13;;;;;;;1.58;0.55;;;19.40;63.90;;;;;;4962737;28;20035;-77
2021/05/24 10:27:39;;;;;;;4.90;0.75;;;19.20;64.60;;;;;;4984225;28;20034;-77
2021/05/24 10:30:05;;;;;;;3.85;0.75;;;19.00;65.80;;;;;;4992979;28;20034;-77
2021/05/24 10:32:30;;;;;;;0.50;0.40;;;18.80;67.10;;;;;;4992284;28;20042;-77
2021/05/24 10:34:59;;;;;;;2.30;1.58;;;18.30;67.30;;;;;;4994937;28;20097;-76
2021/05/24 10:37:25;;;;;;;2.40;0.70;;;18.00;67.80;;;;;;4993948;28;20044;-77
2021/05/24 10:40:02;;;;;;;4.57;0.60;;;17.80;68.50;;;;;;4982313;28;20030;-77
2021/05/24 10:42:42;;;;;;;2.15;1.15;;;17.60;69.10;;;;;;4979133;28;20136;-76
2021/05/24 10:45:15;;;;;;;3.92;0.70;;;17.40;69.30;;;;;;4987019;28;20057;-77
2021/05/24 10:47:58;;;;;;;1.40;0.63;;;17.20;70.60;;;;;;4994771;28;20080;-77
2021/05/24 10:50:29;;;;;;;4.88;0.82;;;17.50;70.50;;;;;;4978674;28;20133;-78
2021/05/24 10:53:07;;;;;;;1.17;0.35;;;17.40;71.20;;;;;;4981734;28;20034;-77
2021/05/24 10:55:38;;;;;;;3.72;0.80;;;17.10;71.60;;;;;;4998511;28;20037;-78
2021/05/24 10:58:09;;;;;;;5.85;1.00;;;17.20;72.50;;;;;;4970646;28;20458;-79
2021/05/24 11:01:07;;;;;;;3.17;1.35;;;17.20;72.80;;;;;;4996116;28;20464;-78
2021/05/24 11:03:33;;;;;;;3.35;0.85;;;17.00;73.10;;;;;;4971387;28;20049;-79
2021/05/24 11:06:11;;;;;;;1.52;0.70;;;17.00;73.50;;;;;;4987275;28;20118;-79
2021/05/24 11:08:39;;;;;;;3.10;0.90;;;17.00;74.10;;;;;;4999463;28;20022;-79
2021/05/24 11:11:31;;;;;;;3.65;1.08;;;17.00;74.10;;;;;;4966986;28;20159;-80
2021/05/24 11:14:07;;;;;;;2.70;1.05;;;16.70;75.00;;;;;;4991931;28;20022;-79
2021/05/24 11:16:33;;;;;;;7.10;0.77;;;16.60;75.90;;;;;;4994084;28;20030;-79
2021/05/24 11:19:06;;;;;;;1.48;0.60;;;16.50;76.30;;;;;;4969038;28;20083;-78
2021/05/24 11:21:32;;;;;;;3.00;0.70;;;16.50;75.90;;;;;;4981965;28;20584;-78
2021/05/24 11:26:36;;;;;;;2.08;0.77;;;16.30;77.70;;;;;;4998503;28;20485;-78
2021/05/24 11:29:10;;;;;;;4.95;1.27;;;16.30;77.20;;;;;;4959728;28;20065;-79
2021/05/24 11:31:36;;;;;;;4.43;1.10;;;16.10;77.90;;;;;;4967837;28;20379;-79
2021/05/24 11:34:06;;;;;;;0.85;0.50;;;16.00;78.70;;;;;;4993845;28;20031;-79
2021/05/24 11:36:42;;;;;;;6.22;1.00;;;15.90;79.30;;;;;;4959358;28;20042;-79
2021/05/24 11:39:21;;;;;;;2.28;1.02;;;16.10;78.80;;;;;;5001539;28;20038;-80
2021/05/24 11:41:57;;;;;;;1.55;0.77;;;16.20;77.40;;;;;;4978895;28;20092;-80
2021/05/24 11:44:29;;;;;;;1.48;0.73;;;16.50;76.40;;;;;;4961291;28;20427;-80
2021/05/24 11:46:56;;;;;;;2.63;0.60;;;16.60;78.20;;;;;;4996222;28;20057;-80
2021/05/24 11:49:35;;;;;;;3.50;1.00;;;16.20;79.60;;;;;;4986636;28;20030;-80
2021/05/24 11:52:01;;;;;;;3.05;1.00;;;16.20;80.20;;;;;;4978244;28;20482;-79
2021/05/24 11:54:27;;;;;;;5.40;1.45;;;16.20;80.70;;;;;;4978884;28;20033;-80
2021/05/24 11:56:54;;;;;;;2.50;0.75;;;16.30;79.90;;;;;;4962151;28;20496;-79
2021/05/24 11:59:21;;;;;;;3.42;0.93;;;16.30;80.10;;;;;;4976905;28;20448;-80
2021/05/24 12:01:48;;;;;;;1.02;0.70;;;16.30;80.30;;;;;;4978618;28;20080;-79
2021/05/24 12:04:22;;;;;;;2.78;1.30;;;16.20;80.60;;;;;;4979661;28;20050;-79
2021/05/24 12:06:51;;;;;;;4.70;0.85;;;16.10;80.70;;;;;;4966010;28;20496;-80
2021/05/24 12:09:36;;;;;;;2.00;0.90;;;16.10;80.70;;;;;;4994834;28;20505;-80
2021/05/24 12:12:04;;;;;;;1.70;1.02;;;16.00;81.20;;;;;;4963717;28;20109;-80
2021/05/24 12:14:32;;;;;;;3.38;0.80;;;16.00;81.70;;;;;;4967589;28;20026;-81
2021/05/24 12:16:58;;;;;;;2.08;0.80;;;15.90;82.70;;;;;;4970109;28;20034;-80
2021/05/24 12:19:24;;;;;;;2.33;1.13;;;15.90;82.90;;;;;;4966506;28;20559;-80
2021/05/24 12:21:53;;;;;;;3.67;0.85;;;15.90;81.90;;;;;;4983296;28;20080;-80
2021/05/24 12:24:19;;;;;;;4.25;1.10;;;15.90;83.40;;;;;;4983251;28;20041;-80
2021/05/24 12:26:50;;;;;;;1.67;0.90;;;15.90;84.20;;;;;;4995896;28;20516;-80
2021/05/24 12:29:23;;;;;;;3.70;1.10;;;15.80;83.80;;;;;;4996673;28;20113;-79
2021/05/24 12:31:49;;;;;;;1.15;0.75;;;15.80;83.90;;;;;;4979736;28;20109;-81
2021/05/24 12:34:15;;;;;;;2.65;0.98;;;15.80;83.40;;;;;;4969785;28;20125;-80
2021/05/24 12:36:53;;;;;;;3.38;1.00;;;15.70;83.10;;;;;;4984454;28;20054;-80
2021/05/24 12:39:19;;;;;;;3.17;0.90;;;15.80;82.50;;;;;;4976384;28;20034;-80
2021/05/24 12:41:45;;;;;;;2.75;0.80;;;15.80;82.30;;;;;;4975045;28;20085;-80
2021/05/24 12:44:10;;;;;;;2.08;0.90;;;15.50;84.90;;;;;;4989679;28;20034;-81
2021/05/24 12:46:42;;;;;;;3.20;1.05;;;15.50;85.80;;;;;;4970966;28;20089;-81
2021/05/24 12:49:08;;;;;;;3.30;0.90;;;15.20;86.60;;;;;;4994491;28;20029;-80
2021/05/24 12:51:34;;;;;;;1.80;0.90;;;15.10;87.00;;;;;;4971239;28;20026;-80